sensor_id;sensor_type;location;lat;lon;timestamp;temperature;humidity
18225;DHT22;9237;48.590;8.854;2024-01-15T00:00:11;-1.90;99.90
18225;DHT22;9237;48.590;8.854;2024-01-15T00:02:39;-1.90;99.90
18225;DHT22;9237;48.590;8.854;2024-01-15T00:05:06;-1.90;99.90
18225;DHT22;9237;48.590;8.854;2024-01-15T00:07:35;-1.90;99.90
18225;DHT22;9237;48.590;8.854;2024-01-15T00:10:02;-1.90;99.90
18225;DHT22;9237;48.590;8.854;2024-01-15T00:12:29;-1.90;99.90
18225;DHT22;9237;48.590;8.854;2024-01-15T00:14:55;-1.80;99.90
18225;DHT22;9237;48.590;8.854;2024-01-15T00:17:22;-1.80;99.90
18225;DHT22;9237;48.590;8.854;2024-01-15T00:19:50;-1.80;99.90
18225;DHT22;9237;48.590;8.854;2024-01-15T00:22:18;-1.80;99.90
18225;DHT22;9237;48.590;8.854;2024-01-15T00:24:45;-1.80;99.90
18225;DHT22;9237;48.590;8.854;2024-01-15T00:27:11;-1.80;99.90
18225;DHT22;9237;48.590;8.854;2024-01-15T00:29:38;-1.80;99.90
18225;DHT22;9237;48.590;8.854;2024-01-15T00:32:05;-1.80;99.90
18225;DHT22;9237;48.590;8.854;2024-01-15T00:34:32;-1.80;99.90
18225;DHT22;9237;48.590;8.854;2024-01-15T00:37:00;-1.70;99.90
18225;DHT22;9237;48.590;8.854;2024-01-15T00:39:28;-1.80;99.90
18225;DHT22;9237;48.590;8.854;2024-01-15T00:41:55;-1.80;99.90
18225;DHT22;9237;48.590;8.854;2024-01-15T00:44:22;-1.80;99.90
18225;DHT22;9237;48.590;8.854;2024-01-15T00:46:48;-1.80;99.90
18225;DHT22;9237;48.590;8.854;2024-01-15T00:49:15;-1.80;99.90
18225;DHT22;9237;48.590;8.854;2024-01-15T00:51:42;-1.80;99.90
18225;DHT22;9237;48.590;8.854;2024-01-15T00:54:10;-1.80;99.90
18225;DHT22;9237;48.590;8.854;2024-01-15T00:56:37;-1.90;99.90
18225;DHT22;9237;48.590;8.854;2024-01-15T00:59:04;-1.90;99.90
18225;DHT22;9237;48.590;8.854;2024-01-15T01:01:31;-1.90;99.90
18225;DHT22;9237;48.590;8.854;2024-01-15T01:03:58;-1.90;99.90
18225;DHT22;9237;48.590;8.854;2024-01-15T01:06:25;-1.90;99.90
18225;DHT22;9237;48.590;8.854;2024-01-15T01:08:51;-1.80;99.90
18225;DHT22;9237;48.590;8.854;2024-01-15T01:11:20;-1.70;99.90
18225;DHT22;9237;48.590;8.854;2024-01-15T01:13:47;-1.60;99.90
18225;DHT22;9237;48.590;8.854;2024-01-15T01:16:13;-1.50;99.90
18225;DHT22;9237;48.590;8.854;2024-01-15T01:18:40;-1.50;99.90
18225;DHT22;9237;48.590;8.854;2024-01-15T01:21:07;-1.50;99.90
18225;DHT22;9237;48.590;8.854;2024-01-15T01:23:34;-1.60;99.90
18225;DHT22;9237;48.590;8.854;2024-01-15T01:26:01;-1.50;99.90
18225;DHT22;9237;48.590;8.854;2024-01-15T01:28:29;-1.40;99.90
18225;DHT22;9237;48.590;8.854;2024-01-15T01:30:56;-1.30;99.90
18225;DHT22;9237;48.590;8.854;2024-01-15T01:33:23;-1.30;99.90
18225;DHT22;9237;48.590;8.854;2024-01-15T01:35:49;-1.20;99.90
18225;DHT22;9237;48.590;8.854;2024-01-15T01:38:16;-1.20;99.90
18225;DHT22;9237;48.590;8.854;2024-01-15T01:40:43;-1.20;99.90
18225;DHT22;9237;48.590;8.854;2024-01-15T01:43:10;-1.20;99.90
18225;DHT22;9237;48.590;8.854;2024-01-15T01:45:38;-1.30;99.90
18225;DHT22;9237;48.590;8.854;2024-01-15T01:48:05;-1.30;99.90
18225;DHT22;9237;48.590;8.854;2024-01-15T01:50:33;0.00;99.90
18225;DHT22;9237;48.590;8.854;2024-01-15T01:53:00;-1.30;99.90
18225;DHT22;9237;48.590;8.854;2024-01-15T01:55:29;-1.30;99.90
18225;DHT22;9237;48.590;8.854;2024-01-15T01:57:59;-1.20;99.90
18225;DHT22;9237;48.590;8.854;2024-01-15T02:00:26;-1.20;99.90
18225;DHT22;9237;48.590;8.854;2024-01-15T02:02:54;-1.20;99.90
18225;DHT22;9237;48.590;8.854;2024-01-15T02:05:22;-1.20;99.90
18225;DHT22;9237;48.590;8.854;2024-01-15T02:07:49;-1.20;99.90
18225;DHT22;9237;48.590;8.854;2024-01-15T02:10:16;-1.30;99.90
18225;DHT22;9237;48.590;8.854;2024-01-15T02:12:43;-1.30;99.90
18225;DHT22;9237;48.590;8.854;2024-01-15T02:15:10;-1.30;99.90
18225;DHT22;9237;48.590;8.854;2024-01-15T02:17:57;-1.30;99.90
18225;DHT22;9237;48.590;8.854;2024-01-15T02:20:24;-1.30;99.90
18225;DHT22;9237;48.590;8.854;2024-01-15T02:22:51;-1.30;99.90
18225;DHT22;9237;48.590;8.854;2024-01-15T02:25:19;-1.40;99.90
18225;DHT22;9237;48.590;8.854;2024-01-15T02:27:47;-1.40;99.90
18225;DHT22;9237;48.590;8.854;2024-01-15T02:30:14;-1.30;99.90
18225;DHT22;9237;48.590;8.854;2024-01-15T02:32:42;-1.40;99.90
18225;DHT22;9237;48.590;8.854;2024-01-15T02:35:08;-1.30;99.90
18225;DHT22;9237;48.590;8.854;2024-01-15T02:37:36;-1.30;99.90
18225;DHT22;9237;48.590;8.854;2024-01-15T02:40:03;-1.40;99.90
18225;DHT22;9237;48.590;8.854;2024-01-15T02:42:31;-1.40;99.90
18225;DHT22;9237;48.590;8.854;2024-01-15T02:44:58;-1.40;99.90
18225;DHT22;9237;48.590;8.854;2024-01-15T02:47:25;-1.40;99.90
18225;DHT22;9237;48.590;8.854;2024-01-15T02:49:51;-1.40;99.90
18225;DHT22;9237;48.590;8.854;2024-01-15T02:52:18;-1.40;99.90
18225;DHT22;9237;48.590;8.854;2024-01-15T02:54:45;-1.40;99.90
18225;DHT22;9237;48.590;8.854;2024-01-15T02:57:12;-1.40;99.90
18225;DHT22;9237;48.590;8.854;2024-01-15T02:59:40;-1.30;99.90
18225;DHT22;9237;48.590;8.854;2024-01-15T03:02:07;-1.20;99.90
18225;DHT22;9237;48.590;8.854;2024-01-15T03:04:34;-1.10;99.90
18225;DHT22;9237;48.590;8.854;2024-01-15T03:07:01;-1.00;99.90
18225;DHT22;9237;48.590;8.854;2024-01-15T03:09:27;-1.00;99.90
18225;DHT22;9237;48.590;8.854;2024-01-15T03:11:54;-1.00;99.90
18225;DHT22;9237;48.590;8.854;2024-01-15T03:14:21;-0.90;99.90
18225;DHT22;9237;48.590;8.854;2024-01-15T03:16:51;-0.90;99.90
18225;DHT22;9237;48.590;8.854;2024-01-15T03:19:18;-0.90;99.90
18225;DHT22;9237;48.590;8.854;2024-01-15T03:21:45;-0.90;99.90
18225;DHT22;9237;48.590;8.854;2024-01-15T03:24:11;-0.90;99.90
18225;DHT22;9237;48.590;8.854;2024-01-15T03:26:38;-0.90;99.90
18225;DHT22;9237;48.590;8.854;2024-01-15T03:29:05;-0.90;99.90
18225;DHT22;9237;48.590;8.854;2024-01-15T03:31:32;-0.90;99.90
18225;DHT22;9237;48.590;8.854;2024-01-15T03:34:00;-1.00;99.90
18225;DHT22;9237;48.590;8.854;2024-01-15T03:36:27;-1.00;99.90
18225;DHT22;9237;48.590;8.854;2024-01-15T03:38:54;-1.10;99.90
18225;DHT22;9237;48.590;8.854;2024-01-15T03:41:21;-1.10;99.90
18225;DHT22;9237;48.590;8.854;2024-01-15T03:43:47;-1.10;99.90
18225;DHT22;9237;48.590;8.854;2024-01-15T03:46:14;-1.10;99.90
18225;DHT22;9237;48.590;8.854;2024-01-15T03:48:41;-1.10;99.90
18225;DHT22;9237;48.590;8.854;2024-01-15T03:51:09;-1.10;99.90
18225;DHT22;9237;48.590;8.854;2024-01-15T03:53:37;-1.00;99.90
18225;DHT22;9237;48.590;8.854;2024-01-15T03:56:04;-1.00;99.90
18225;DHT22;9237;48.590;8.854;2024-01-15T03:58:31;-0.90;99.90
18225;DHT22;9237;48.590;8.854;2024-01-15T04:00:58;-0.90;99.90
18225;DHT22;9237;48.590;8.854;2024-01-15T04:03:24;-1.00;99.90
18225;DHT22;9237;48.590;8.854;2024-01-15T04:05:51;-1.00;99.90
18225;DHT22;9237;48.590;8.854;2024-01-15T04:08:19;-1.00;99.90
18225;DHT22;9237;48.590;8.854;2024-01-15T04:10:46;-1.00;99.90
18225;DHT22;9237;48.590;8.854;2024-01-15T04:13:13;-1.00;99.90
18225;DHT22;9237;48.590;8.854;2024-01-15T04:15:40;-1.10;99.90
18225;DHT22;9237;48.590;8.854;2024-01-15T04:18:06;-1.00;99.90
18225;DHT22;9237;48.590;8.854;2024-01-15T04:20:33;-1.00;99.90
18225;DHT22;9237;48.590;8.854;2024-01-15T04:23:00;-1.00;99.90
18225;DHT22;9237;48.590;8.854;2024-01-15T04:25:28;-1.00;99.90
18225;DHT22;9237;48.590;8.854;2024-01-15T04:27:55;-1.00;99.90
18225;DHT22;9237;48.590;8.854;2024-01-15T04:30:22;-1.00;99.90
18225;DHT22;9237;48.590;8.854;2024-01-15T04:32:48;-1.00;99.90
18225;DHT22;9237;48.590;8.854;2024-01-15T04:35:15;-1.00;99.90
18225;DHT22;9237;48.590;8.854;2024-01-15T04:37:42;-0.90;99.90
18225;DHT22;9237;48.590;8.854;2024-01-15T04:40:10;-1.00;99.90
18225;DHT22;9237;48.590;8.854;2024-01-15T04:42:39;-1.00;99.90
18225;DHT22;9237;48.590;8.854;2024-01-15T04:45:06;-0.90;99.90
18225;DHT22;9237;48.590;8.854;2024-01-15T04:47:33;-0.90;99.90
18225;DHT22;9237;48.590;8.854;2024-01-15T04:49:59;-0.90;99.90
18225;DHT22;9237;48.590;8.854;2024-01-15T04:52:26;-0.90;99.90
18225;DHT22;9237;48.590;8.854;2024-01-15T04:54:53;-0.90;99.90
18225;DHT22;9237;48.590;8.854;2024-01-15T04:57:20;-0.90;99.90
18225;DHT22;9237;48.590;8.854;2024-01-15T04:59:48;-0.90;99.90
18225;DHT22;9237;48.590;8.854;2024-01-15T05:02:14;-0.90;99.90
18225;DHT22;9237;48.590;8.854;2024-01-15T05:04:41;-1.00;99.90
18225;DHT22;9237;48.590;8.854;2024-01-15T05:07:08;-0.90;99.90
18225;DHT22;9237;48.590;8.854;2024-01-15T05:09:35;-1.00;99.90
18225;DHT22;9237;48.590;8.854;2024-01-15T05:12:01;-0.90;99.90
18225;DHT22;9237;48.590;8.854;2024-01-15T05:14:28;-1.00;99.90
18225;DHT22;9237;48.590;8.854;2024-01-15T05:16:56;-0.90;99.90
18225;DHT22;9237;48.590;8.854;2024-01-15T05:19:23;-0.80;99.90
18225;DHT22;9237;48.590;8.854;2024-01-15T05:21:50;-0.80;99.90
18225;DHT22;9237;48.590;8.854;2024-01-15T05:24:17;-0.80;99.90
18225;DHT22;9237;48.590;8.854;2024-01-15T05:26:43;-0.80;99.90
18225;DHT22;9237;48.590;8.854;2024-01-15T05:29:10;-0.80;99.90
18225;DHT22;9237;48.590;8.854;2024-01-15T05:31:37;-0.70;99.90
18225;DHT22;9237;48.590;8.854;2024-01-15T05:34:05;-0.70;99.90
18225;DHT22;9237;48.590;8.854;2024-01-15T05:36:32;-0.70;99.90
18225;DHT22;9237;48.590;8.854;2024-01-15T05:38:58;-0.70;99.90
18225;DHT22;9237;48.590;8.854;2024-01-15T05:41:25;-0.70;99.90
18225;DHT22;9237;48.590;8.854;2024-01-15T05:43:52;-0.70;99.90
18225;DHT22;9237;48.590;8.854;2024-01-15T05:46:19;-0.80;99.90
18225;DHT22;9237;48.590;8.854;2024-01-15T05:48:46;-0.80;99.90
18225;DHT22;9237;48.590;8.854;2024-01-15T05:51:14;-0.90;99.90
18225;DHT22;9237;48.590;8.854;2024-01-15T05:53:40;-0.90;99.90
18225;DHT22;9237;48.590;8.854;2024-01-15T05:56:10;-1.00;99.90
18225;DHT22;9237;48.590;8.854;2024-01-15T05:58:37;-1.00;99.90
18225;DHT22;9237;48.590;8.854;2024-01-15T06:01:03;-1.00;99.90
18225;DHT22;9237;48.590;8.854;2024-01-15T06:03:31;-1.00;99.90
18225;DHT22;9237;48.590;8.854;2024-01-15T06:05:58;-1.00;99.90
18225;DHT22;9237;48.590;8.854;2024-01-15T06:08:26;-1.00;99.90
18225;DHT22;9237;48.590;8.854;2024-01-15T06:10:53;-1.00;99.90
18225;DHT22;9237;48.590;8.854;2024-01-15T06:13:20;-1.00;99.90
18225;DHT22;9237;48.590;8.854;2024-01-15T06:15:47;-1.00;99.90
18225;DHT22;9237;48.590;8.854;2024-01-15T06:18:13;-1.00;99.90
18225;DHT22;9237;48.590;8.854;2024-01-15T06:20:40;-1.10;99.90
18225;DHT22;9237;48.590;8.854;2024-01-15T06:23:07;-1.10;99.90
18225;DHT22;9237;48.590;8.854;2024-01-15T06:25:35;-1.10;99.90
18225;DHT22;9237;48.590;8.854;2024-01-15T06:28:02;-1.10;99.90
18225;DHT22;9237;48.590;8.854;2024-01-15T06:30:30;-1.10;99.90
18225;DHT22;9237;48.590;8.854;2024-01-15T06:32:57;-1.10;99.90
18225;DHT22;9237;48.590;8.854;2024-01-15T06:35:23;-1.10;99.90
18225;DHT22;9237;48.590;8.854;2024-01-15T06:37:50;-1.10;99.90
18225;DHT22;9237;48.590;8.854;2024-01-15T06:40:17;-1.00;99.90
18225;DHT22;9237;48.590;8.854;2024-01-15T06:42:45;-0.90;99.90
18225;DHT22;9237;48.590;8.854;2024-01-15T06:45:12;-0.80;99.90
18225;DHT22;9237;48.590;8.854;2024-01-15T06:47:39;-0.70;99.90
18225;DHT22;9237;48.590;8.854;2024-01-15T06:50:06;-0.70;99.90
18225;DHT22;9237;48.590;8.854;2024-01-15T06:52:32;-0.60;99.90
18225;DHT22;9237;48.590;8.854;2024-01-15T06:54:59;-0.60;99.90
18225;DHT22;9237;48.590;8.854;2024-01-15T06:57:26;-0.60;99.90
18225;DHT22;9237;48.590;8.854;2024-01-15T06:59:54;-0.70;99.90
18225;DHT22;9237;48.590;8.854;2024-01-15T07:02:21;-0.80;99.90
18225;DHT22;9237;48.590;8.854;2024-01-15T07:04:48;-0.80;99.90
18225;DHT22;9237;48.590;8.854;2024-01-15T07:07:15;-0.90;99.90
18225;DHT22;9237;48.590;8.854;2024-01-15T07:09:41;-0.90;99.90
18225;DHT22;9237;48.590;8.854;2024-01-15T07:12:08;-0.90;99.90
18225;DHT22;9237;48.590;8.854;2024-01-15T07:14:35;-0.90;99.90
18225;DHT22;9237;48.590;8.854;2024-01-15T07:17:03;-1.00;99.90
18225;DHT22;9237;48.590;8.854;2024-01-15T07:19:30;-1.00;99.90
18225;DHT22;9237;48.590;8.854;2024-01-15T07:21:57;-1.00;99.90
18225;DHT22;9237;48.590;8.854;2024-01-15T07:24:23;-1.00;99.90
18225;DHT22;9237;48.590;8.854;2024-01-15T07:26:50;-1.00;99.90
18225;DHT22;9237;48.590;8.854;2024-01-15T07:29:17;-0.80;99.90
18225;DHT22;9237;48.590;8.854;2024-01-15T07:31:48;-0.80;99.90
18225;DHT22;9237;48.590;8.854;2024-01-15T07:34:16;-0.80;99.90
18225;DHT22;9237;48.590;8.854;2024-01-15T07:36:44;-0.80;99.90
18225;DHT22;9237;48.590;8.854;2024-01-15T07:39:10;-2.50;99.90
18225;DHT22;9237;48.590;8.854;2024-01-15T07:41:37;-0.80;99.90
18225;DHT22;9237;48.590;8.854;2024-01-15T07:44:05;-0.80;99.90
18225;DHT22;9237;48.590;8.854;2024-01-15T07:46:32;-0.80;99.90
18225;DHT22;9237;48.590;8.854;2024-01-15T07:48:58;-0.70;99.90
18225;DHT22;9237;48.590;8.854;2024-01-15T07:51:27;-0.70;99.90
18225;DHT22;9237;48.590;8.854;2024-01-15T07:53:54;-0.70;99.90
18225;DHT22;9237;48.590;8.854;2024-01-15T07:56:21;-0.60;99.90
18225;DHT22;9237;48.590;8.854;2024-01-15T07:58:48;-0.50;99.90
18225;DHT22;9237;48.590;8.854;2024-01-15T08:01:15;-0.50;99.90
18225;DHT22;9237;48.590;8.854;2024-01-15T08:03:41;-0.50;99.90
18225;DHT22;9237;48.590;8.854;2024-01-15T08:06:08;-0.40;99.90
18225;DHT22;9237;48.590;8.854;2024-01-15T08:08:37;-0.40;99.90
18225;DHT22;9237;48.590;8.854;2024-01-15T08:11:04;-0.40;99.90
18225;DHT22;9237;48.590;8.854;2024-01-15T08:13:31;-0.30;99.90
18225;DHT22;9237;48.590;8.854;2024-01-15T08:15:58;-0.30;99.90
18225;DHT22;9237;48.590;8.854;2024-01-15T08:18:24;-0.30;99.90
18225;DHT22;9237;48.590;8.854;2024-01-15T08:20:51;-0.20;99.90
18225;DHT22;9237;48.590;8.854;2024-01-15T08:23:19;-0.20;99.90
18225;DHT22;9237;48.590;8.854;2024-01-15T08:25:48;-0.20;99.90
18225;DHT22;9237;48.590;8.854;2024-01-15T08:28:16;-0.10;99.90
18225;DHT22;9237;48.590;8.854;2024-01-15T08:30:43;-0.10;99.90
18225;DHT22;9237;48.590;8.854;2024-01-15T08:33:09;-0.10;99.90
18225;DHT22;9237;48.590;8.854;2024-01-15T08:35:36;-0.10;99.90
18225;DHT22;9237;48.590;8.854;2024-01-15T08:38:03;-0.10;99.90
18225;DHT22;9237;48.590;8.854;2024-01-15T08:40:30;0.00;99.90
18225;DHT22;9237;48.590;8.854;2024-01-15T08:42:58;0.10;99.90
18225;DHT22;9237;48.590;8.854;2024-01-15T08:45:25;0.10;99.90
18225;DHT22;9237;48.590;8.854;2024-01-15T08:47:51;0.10;99.90
18225;DHT22;9237;48.590;8.854;2024-01-15T08:50:18;0.20;99.90
18225;DHT22;9237;48.590;8.854;2024-01-15T08:52:45;0.20;99.90
18225;DHT22;9237;48.590;8.854;2024-01-15T08:55:12;0.20;99.90
18225;DHT22;9237;48.590;8.854;2024-01-15T08:57:39;0.20;99.90
18225;DHT22;9237;48.590;8.854;2024-01-15T09:00:09;0.30;99.90
18225;DHT22;9237;48.590;8.854;2024-01-15T09:02:36;0.30;99.90
18225;DHT22;9237;48.590;8.854;2024-01-15T09:05:03;0.40;99.90
18225;DHT22;9237;48.590;8.854;2024-01-15T09:07:30;0.40;99.90
18225;DHT22;9237;48.590;8.854;2024-01-15T09:09:57;0.40;99.90
18225;DHT22;9237;48.590;8.854;2024-01-15T09:12:25;0.40;99.90
18225;DHT22;9237;48.590;8.854;2024-01-15T09:14:52;0.40;99.90
18225;DHT22;9237;48.590;8.854;2024-01-15T09:17:20;0.40;99.90
18225;DHT22;9237;48.590;8.854;2024-01-15T09:19:48;0.40;99.90
18225;DHT22;9237;48.590;8.854;2024-01-15T09:22:15;0.50;99.90
18225;DHT22;9237;48.590;8.854;2024-01-15T09:24:43;0.50;99.90
18225;DHT22;9237;48.590;8.854;2024-01-15T09:27:10;0.60;99.90
18225;DHT22;9237;48.590;8.854;2024-01-15T09:29:37;0.70;99.90
18225;DHT22;9237;48.590;8.854;2024-01-15T09:32:06;0.70;99.90
18225;DHT22;9237;48.590;8.854;2024-01-15T09:34:35;0.70;99.90
18225;DHT22;9237;48.590;8.854;2024-01-15T09:37:02;0.70;99.90
18225;DHT22;9237;48.590;8.854;2024-01-15T09:39:29;0.70;99.90
18225;DHT22;9237;48.590;8.854;2024-01-15T09:41:57;0.80;99.90
18225;DHT22;9237;48.590;8.854;2024-01-15T09:44:25;0.80;99.90
18225;DHT22;9237;48.590;8.854;2024-01-15T09:46:53;0.80;99.90
18225;DHT22;9237;48.590;8.854;2024-01-15T09:49:21;0.90;99.90
18225;DHT22;9237;48.590;8.854;2024-01-15T09:51:50;0.90;99.90
18225;DHT22;9237;48.590;8.854;2024-01-15T09:54:17;1.00;99.90
18225;DHT22;9237;48.590;8.854;2024-01-15T09:56:45;1.00;99.90
18225;DHT22;9237;48.590;8.854;2024-01-15T09:59:15;1.00;99.90
18225;DHT22;9237;48.590;8.854;2024-01-15T10:01:43;1.00;99.90
18225;DHT22;9237;48.590;8.854;2024-01-15T10:04:10;1.00;99.90
18225;DHT22;9237;48.590;8.854;2024-01-15T10:06:38;1.00;99.90
18225;DHT22;9237;48.590;8.854;2024-01-15T10:09:07;1.00;99.90
18225;DHT22;9237;48.590;8.854;2024-01-15T10:11:34;1.00;99.90
18225;DHT22;9237;48.590;8.854;2024-01-15T10:14:03;0.20;99.90
18225;DHT22;9237;48.590;8.854;2024-01-15T10:16:31;1.00;99.90
18225;DHT22;9237;48.590;8.854;2024-01-15T10:18:57;1.10;99.90
18225;DHT22;9237;48.590;8.854;2024-01-15T10:21:24;1.10;99.90
18225;DHT22;9237;48.590;8.854;2024-01-15T10:23:52;1.10;99.90
18225;DHT22;9237;48.590;8.854;2024-01-15T10:26:24;1.20;99.90
18225;DHT22;9237;48.590;8.854;2024-01-15T10:28:51;1.30;99.90
18225;DHT22;9237;48.590;8.854;2024-01-15T10:31:20;1.30;99.90
18225;DHT22;9237;48.590;8.854;2024-01-15T10:33:47;1.30;99.90
18225;DHT22;9237;48.590;8.854;2024-01-15T10:36:15;1.30;99.90
18225;DHT22;9237;48.590;8.854;2024-01-15T10:38:43;1.30;99.90
18225;DHT22;9237;48.590;8.854;2024-01-15T10:41:10;1.20;99.90
18225;DHT22;9237;48.590;8.854;2024-01-15T10:43:38;1.20;99.90
18225;DHT22;9237;48.590;8.854;2024-01-15T10:46:06;1.20;99.90
18225;DHT22;9237;48.590;8.854;2024-01-15T10:48:33;1.10;99.90
18225;DHT22;9237;48.590;8.854;2024-01-15T10:51:01;1.10;99.90
18225;DHT22;9237;48.590;8.854;2024-01-15T10:53:35;1.10;99.90
18225;DHT22;9237;48.590;8.854;2024-01-15T10:56:03;1.10;99.90
18225;DHT22;9237;48.590;8.854;2024-01-15T10:58:31;1.10;99.90
18225;DHT22;9237;48.590;8.854;2024-01-15T11:00:59;1.10;99.90
18225;DHT22;9237;48.590;8.854;2024-01-15T11:03:27;1.10;99.90
18225;DHT22;9237;48.590;8.854;2024-01-15T11:05:54;1.10;99.90
18225;DHT22;9237;48.590;8.854;2024-01-15T11:08:20;1.00;99.90
18225;DHT22;9237;48.590;8.854;2024-01-15T11:10:50;1.00;99.90
18225;DHT22;9237;48.590;8.854;2024-01-15T11:13:20;1.00;99.90
18225;DHT22;9237;48.590;8.854;2024-01-15T11:16:01;1.00;99.90
18225;DHT22;9237;48.590;8.854;2024-01-15T11:18:29;1.00;99.90
18225;DHT22;9237;48.590;8.854;2024-01-15T11:21:21;1.00;99.90
18225;DHT22;9237;48.590;8.854;2024-01-15T11:23:49;1.00;99.90
18225;DHT22;9237;48.590;8.854;2024-01-15T11:26:30;1.00;99.90
18225;DHT22;9237;48.590;8.854;2024-01-15T11:28:58;0.90;99.90
18225;DHT22;9237;48.590;8.854;2024-01-15T11:31:28;1.00;99.90
18225;DHT22;9237;48.590;8.854;2024-01-15T11:33:55;1.00;99.90
18225;DHT22;9237;48.590;8.854;2024-01-15T11:39:39;1.00;99.90
18225;DHT22;9237;48.590;8.854;2024-01-15T11:42:09;1.00;99.90
18225;DHT22;9237;48.590;8.854;2024-01-15T11:44:37;1.00;99.90
18225;DHT22;9237;48.590;8.854;2024-01-15T11:47:06;1.00;99.90
18225;DHT22;9237;48.590;8.854;2024-01-15T11:49:56;1.00;99.90
18225;DHT22;9237;48.590;8.854;2024-01-15T11:52:25;1.00;99.90
18225;DHT22;9237;48.590;8.854;2024-01-15T11:55:10;0.90;99.90
18225;DHT22;9237;48.590;8.854;2024-01-15T11:57:41;0.90;99.90
18225;DHT22;9237;48.590;8.854;2024-01-15T12:00:10;0.80;99.90
18225;DHT22;9237;48.590;8.854;2024-01-15T12:02:39;0.80;99.90
18225;DHT22;9237;48.590;8.854;2024-01-15T12:05:07;0.80;99.90
18225;DHT22;9237;48.590;8.854;2024-01-15T12:07:34;0.80;99.90
18225;DHT22;9237;48.590;8.854;2024-01-15T12:10:01;0.80;99.90
18225;DHT22;9237;48.590;8.854;2024-01-15T12:12:36;0.80;99.90
18225;DHT22;9237;48.590;8.854;2024-01-15T12:15:04;0.80;99.90
18225;DHT22;9237;48.590;8.854;2024-01-15T12:17:31;0.80;99.90
18225;DHT22;9237;48.590;8.854;2024-01-15T12:20:00;0.70;99.90
18225;DHT22;9237;48.590;8.854;2024-01-15T12:22:26;0.70;99.90
18225;DHT22;9237;48.590;8.854;2024-01-15T12:24:54;0.70;99.90
18225;DHT22;9237;48.590;8.854;2024-01-15T12:27:21;0.70;99.90
18225;DHT22;9237;48.590;8.854;2024-01-15T12:29:48;0.70;99.90
18225;DHT22;9237;48.590;8.854;2024-01-15T12:32:14;0.70;99.90
18225;DHT22;9237;48.590;8.854;2024-01-15T12:34:43;0.60;99.90
18225;DHT22;9237;48.590;8.854;2024-01-15T12:37:11;0.60;99.90
18225;DHT22;9237;48.590;8.854;2024-01-15T12:39:38;0.70;99.90
18225;DHT22;9237;48.590;8.854;2024-01-15T12:42:05;0.70;99.90
18225;DHT22;9237;48.590;8.854;2024-01-15T12:44:32;0.70;99.90
18225;DHT22;9237;48.590;8.854;2024-01-15T12:46:59;0.60;99.90
18225;DHT22;9237;48.590;8.854;2024-01-15T12:49:26;0.70;99.90
18225;DHT22;9237;48.590;8.854;2024-01-15T12:51:53;0.60;99.90
18225;DHT22;9237;48.590;8.854;2024-01-15T12:54:22;0.60;99.90
18225;DHT22;9237;48.590;8.854;2024-01-15T12:56:49;0.60;99.90
18225;DHT22;9237;48.590;8.854;2024-01-15T12:59:16;0.60;99.90
18225;DHT22;9237;48.590;8.854;2024-01-15T13:01:43;0.60;99.90
18225;DHT22;9237;48.590;8.854;2024-01-15T13:04:10;0.60;99.90
18225;DHT22;9237;48.590;8.854;2024-01-15T13:06:37;0.60;99.90
18225;DHT22;9237;48.590;8.854;2024-01-15T13:09:04;0.60;99.90
18225;DHT22;9237;48.590;8.854;2024-01-15T13:11:33;0.60;99.90
18225;DHT22;9237;48.590;8.854;2024-01-15T13:14:00;0.70;99.90
18225;DHT22;9237;48.590;8.854;2024-01-15T13:16:26;0.70;99.90
18225;DHT22;9237;48.590;8.854;2024-01-15T13:18:54;0.70;99.90
18225;DHT22;9237;48.590;8.854;2024-01-15T13:21:21;0.60;99.90
18225;DHT22;9237;48.590;8.854;2024-01-15T13:23:48;0.70;99.90
18225;DHT22;9237;48.590;8.854;2024-01-15T13:26:15;0.60;99.90
18225;DHT22;9237;48.590;8.854;2024-01-15T13:28:45;0.70;99.90
18225;DHT22;9237;48.590;8.854;2024-01-15T13:31:12;0.70;99.90
18225;DHT22;9237;48.590;8.854;2024-01-15T13:33:39;0.70;99.90
18225;DHT22;9237;48.590;8.854;2024-01-15T13:36:06;0.70;99.90
18225;DHT22;9237;48.590;8.854;2024-01-15T13:38:36;0.70;99.90
18225;DHT22;9237;48.590;8.854;2024-01-15T13:41:04;0.70;99.90
18225;DHT22;9237;48.590;8.854;2024-01-15T13:43:31;0.70;99.90
18225;DHT22;9237;48.590;8.854;2024-01-15T13:45:59;0.70;99.90
18225;DHT22;9237;48.590;8.854;2024-01-15T13:48:30;0.70;99.90
18225;DHT22;9237;48.590;8.854;2024-01-15T13:50:57;0.80;99.90
18225;DHT22;9237;48.590;8.854;2024-01-15T13:53:24;0.80;99.90
18225;DHT22;9237;48.590;8.854;2024-01-15T13:55:51;0.80;99.90
18225;DHT22;9237;48.590;8.854;2024-01-15T13:58:18;0.80;99.90
18225;DHT22;9237;48.590;8.854;2024-01-15T14:00:47;0.80;99.90
18225;DHT22;9237;48.590;8.854;2024-01-15T14:03:15;0.90;99.90
18225;DHT22;9237;48.590;8.854;2024-01-15T14:05:41;0.90;99.90
18225;DHT22;9237;48.590;8.854;2024-01-15T14:08:08;0.90;99.90
18225;DHT22;9237;48.590;8.854;2024-01-15T14:10:35;0.90;99.90
18225;DHT22;9237;48.590;8.854;2024-01-15T14:13:03;0.80;99.90
18225;DHT22;9237;48.590;8.854;2024-01-15T14:15:30;0.80;99.90
18225;DHT22;9237;48.590;8.854;2024-01-15T14:17:56;0.70;99.90
18225;DHT22;9237;48.590;8.854;2024-01-15T14:20:25;0.70;99.90
18225;DHT22;9237;48.590;8.854;2024-01-15T14:22:52;0.70;99.90
18225;DHT22;9237;48.590;8.854;2024-01-15T14:25:19;0.70;99.90
18225;DHT22;9237;48.590;8.854;2024-01-15T14:27:46;0.60;99.90
18225;DHT22;9237;48.590;8.854;2024-01-15T14:30:14;0.60;99.90
18225;DHT22;9237;48.590;8.854;2024-01-15T14:32:41;0.50;99.90
18225;DHT22;9237;48.590;8.854;2024-01-15T14:35:08;0.50;99.90
18225;DHT22;9237;48.590;8.854;2024-01-15T14:37:37;0.40;99.90
18225;DHT22;9237;48.590;8.854;2024-01-15T14:40:05;0.50;99.90
18225;DHT22;9237;48.590;8.854;2024-01-15T14:42:33;0.40;99.90
18225;DHT22;9237;48.590;8.854;2024-01-15T14:45:00;0.40;99.90
18225;DHT22;9237;48.590;8.854;2024-01-15T14:47:28;0.40;99.90
18225;DHT22;9237;48.590;8.854;2024-01-15T14:49:55;0.30;99.90
18225;DHT22;9237;48.590;8.854;2024-01-15T14:52:23;0.30;99.90
18225;DHT22;9237;48.590;8.854;2024-01-15T14:54:51;0.30;99.90
18225;DHT22;9237;48.590;8.854;2024-01-15T14:57:18;0.20;99.90
18225;DHT22;9237;48.590;8.854;2024-01-15T14:59:45;0.20;99.90
18225;DHT22;9237;48.590;8.854;2024-01-15T15:02:11;0.20;99.90
18225;DHT22;9237;48.590;8.854;2024-01-15T15:04:39;0.20;99.90
18225;DHT22;9237;48.590;8.854;2024-01-15T15:07:07;0.20;99.90
18225;DHT22;9237;48.590;8.854;2024-01-15T15:09:34;0.20;99.90
18225;DHT22;9237;48.590;8.854;2024-01-15T15:12:05;0.20;99.90
18225;DHT22;9237;48.590;8.854;2024-01-15T15:14:32;0.10;99.90
18225;DHT22;9237;48.590;8.854;2024-01-15T15:17:03;0.00;99.90
18225;DHT22;9237;48.590;8.854;2024-01-15T15:19:31;0.00;99.90
18225;DHT22;9237;48.590;8.854;2024-01-15T15:21:58;-0.10;99.90
18225;DHT22;9237;48.590;8.854;2024-01-15T15:24:25;-0.20;99.90
18225;DHT22;9237;48.590;8.854;2024-01-15T15:26:52;-0.20;99.90
18225;DHT22;9237;48.590;8.854;2024-01-15T15:29:21;-0.20;99.90
18225;DHT22;9237;48.590;8.854;2024-01-15T15:31:50;-0.20;99.90
18225;DHT22;9237;48.590;8.854;2024-01-15T15:34:17;-0.20;99.90
18225;DHT22;9237;48.590;8.854;2024-01-15T15:36:44;-0.20;99.90
18225;DHT22;9237;48.590;8.854;2024-01-15T15:39:11;-0.30;99.90
18225;DHT22;9237;48.590;8.854;2024-01-15T15:41:41;-0.20;99.90
18225;DHT22;9237;48.590;8.854;2024-01-15T15:44:08;-0.20;99.90
18225;DHT22;9237;48.590;8.854;2024-01-15T15:46:38;-0.30;99.90
18225;DHT22;9237;48.590;8.854;2024-01-15T15:49:04;-0.30;99.90
18225;DHT22;9237;48.590;8.854;2024-01-15T15:51:32;-0.30;99.90
18225;DHT22;9237;48.590;8.854;2024-01-15T15:54:01;-0.30;99.90
18225;DHT22;9237;48.590;8.854;2024-01-15T15:56:28;-0.40;99.90